首页
METAR-TAF:

METAR-TAF

机场 :

Mecklenburg-Brunswick Regional Airport

South Hill, 弗吉尼亚州, 美国

纬度: 36-41-19N, 经度: 078-03-15W, 海拔: 135米

当前天气观测

该预报发布于27分钟前的18:15 UTC
风速8节,风向
温度 13°C
湿度 72%
气压 1025 hPa
能見度: 16.1公里
阴天层高于8500英尺

METAR: KAVC 231815Z AUTO 17008KT 10SM OVC085 13/08 A3027 RMK AO2 T01320075

时间: 13:42 (18:42 UTC)


TAF: 丢失

超过4000个机场的气象观测和天气预报(METAR&TAF报告)。

可查询的气象台以黄色和红色小点在地图上表示。

将鼠标移到小点上方,可查看气象台名称。

然后点击查看天气观测和预报。

如需切换地图:点击带黑十字的绿色按钮放大地图;点击带横线的绿色按钮缩小地图;或者点击绿色箭头查看邻近地区的地图。


METAR-TAF: